Time;durP1;ratioP1;P1;durP2;ratioP2;P2;SDS_P1;SDS_P2;PMS_P1;PMS_P2;Temp;Humidity;BMP_temperature;BMP_pressure;BME280_temperature;BME280_humidity;BME280_pressure;Samples;Min_cycle;Max_cycle;Signal;HPM_P1;HPM_P2
2023/04/21 00:08:19;;;;;;;1999.90;999.90;;;7.40;99.90;;;;;;6725712;88;20712;-79
2023/04/21 00:18:20;;;;;;;1999.90;999.90;;;7.40;99.90;;;;;;6745448;88;20239;-79
2023/04/21 00:28:20;;;;;;;1999.90;999.90;;;7.40;99.90;;;;;;6738242;88;20498;-78
2023/04/21 00:38:21;;;;;;;1999.90;999.90;;;7.30;99.90;;;;;;6736560;88;20286;-79
2023/04/21 00:48:21;;;;;;;1999.90;999.90;;;7.40;99.90;;;;;;6736557;88;20535;-79
2023/04/21 00:58:22;;;;;;;1999.90;999.90;;;7.40;99.90;;;;;;6732997;88;20274;-78
2023/04/21 01:08:22;;;;;;;1999.90;999.90;;;7.50;99.90;;;;;;6719300;88;20263;-78
2023/04/21 01:18:23;;;;;;;1999.90;999.90;;;7.50;99.90;;;;;;6718818;88;20307;-79
2023/04/21 01:28:25;;;;;;;1999.90;999.90;;;7.50;99.90;;;;;;6719764;88;20768;-78
2023/04/21 01:38:26;;;;;;;1999.90;999.90;;;7.50;99.90;;;;;;6719421;88;20305;-79
2023/04/21 01:48:26;;;;;;;1999.90;999.90;;;7.40;99.90;;;;;;6718689;88;20357;-79
2023/04/21 01:58:27;;;;;;;1999.90;999.90;;;7.40;99.90;;;;;;6721607;88;20250;-80
2023/04/21 02:08:28;;;;;;;1999.90;999.90;;;7.40;99.90;;;;;;6723197;88;20223;-78
2023/04/21 02:18:28;;;;;;;1999.90;999.90;;;7.40;99.90;;;;;;6721452;88;20215;-79
2023/04/21 02:28:30;;;;;;;1999.90;999.90;;;7.30;99.90;;;;;;6720877;88;20209;-78
2023/04/21 02:38:31;;;;;;;1999.90;999.90;;;7.20;99.90;;;;;;6722300;88;20856;-78
2023/04/21 02:48:31;;;;;;;1999.90;999.90;;;7.10;99.90;;;;;;6722256;77;20306;-77
2023/04/21 02:58:32;;;;;;;1999.90;999.90;;;6.90;99.90;;;;;;6724714;88;20186;-80
2023/04/21 03:08:32;;;;;;;1999.90;999.90;;;6.80;99.90;;;;;;6725811;88;20276;-77
2023/04/21 03:18:36;;;;;;;1999.90;999.90;;;6.70;99.90;;;;;;6722530;88;20391;-78
2023/04/21 03:28:36;;;;;;;1999.90;999.90;;;6.50;99.90;;;;;;6723851;88;20229;-77
2023/04/21 03:38:37;;;;;;;1999.90;999.90;;;6.40;99.90;;;;;;6723812;88;20273;-77
2023/04/21 03:48:37;;;;;;;1999.90;999.90;;;6.30;99.90;;;;;;6724707;88;20219;-77
2023/04/21 03:58:38;;;;;;;1999.90;999.90;;;6.20;99.90;;;;;;6724251;88;20233;-78
2023/04/21 04:08:38;;;;;;;1999.90;999.90;;;6.10;99.90;;;;;;6723985;88;20183;-79
2023/04/21 04:18:39;;;;;;;1999.90;999.90;;;6.00;99.90;;;;;;6731563;88;20179;-77
2023/04/21 04:28:40;;;;;;;1999.90;999.90;;;5.90;99.90;;;;;;6727493;88;20190;-78
2023/04/21 04:38:40;;;;;;;1999.90;999.90;;;5.90;99.90;;;;;;6727863;88;20597;-77
2023/04/21 04:48:41;;;;;;;1999.90;999.90;;;5.80;99.90;;;;;;6723925;88;20223;-78
2023/04/21 04:58:41;;;;;;;1999.90;999.90;;;5.80;99.90;;;;;;6731315;88;20260;-77
2023/04/21 05:08:42;;;;;;;1999.90;999.90;;;5.70;99.90;;;;;;6726868;88;20232;-78
2023/04/21 05:18:42;;;;;;;1999.90;999.90;;;5.70;99.90;;;;;;6717885;88;20342;-81
2023/04/21 05:28:43;;;;;;;1999.90;999.90;;;5.70;99.90;;;;;;6722199;88;20215;-80
2023/04/21 05:38:43;;;;;;;1999.90;999.90;;;5.70;99.90;;;;;;6724520;88;20507;-81
2023/04/21 05:48:44;;;;;;;1999.90;999.90;;;5.80;99.90;;;;;;6726476;88;20199;-78
2023/04/21 05:58:45;;;;;;;1999.90;999.90;;;5.90;99.90;;;;;;6726987;88;20202;-78
2023/04/21 06:08:45;;;;;;;1999.90;999.90;;;6.00;99.90;;;;;;6731848;88;20166;-80
2023/04/21 06:18:46;;;;;;;1999.90;999.90;;;6.20;99.90;;;;;;6725207;88;20178;-79
2023/04/21 06:28:46;;;;;;;1999.90;999.90;;;6.40;99.90;;;;;;6722943;88;20221;-80
2023/04/21 06:38:47;;;;;;;1999.90;999.90;;;6.50;99.90;;;;;;6727632;88;20652;-81
2023/04/21 06:48:48;;;;;;;1999.90;999.90;;;6.90;99.90;;;;;;6730281;88;20201;-82
2023/04/21 06:58:49;;;;;;;1999.90;999.90;;;7.20;99.90;;;;;;6735706;88;20330;-81
2023/04/21 07:08:49;;;;;;;1999.90;999.90;;;7.80;99.90;;;;;;6741382;88;20216;-80
2023/04/21 07:18:50;;;;;;;1999.90;999.90;;;8.40;99.90;;;;;;6729609;88;20540;-80
2023/04/21 07:28:51;;;;;;;1999.90;999.90;;;8.70;99.90;;;;;;6722915;88;20182;-80
2023/04/21 07:38:52;;;;;;;1999.90;999.90;;;8.80;99.90;;;;;;6725007;88;20189;-78
2023/04/21 07:48:52;;;;;;;1999.90;999.90;;;9.00;99.90;;;;;;6740236;88;20259;-78
2023/04/21 07:58:53;;;;;;;1999.90;999.90;;;9.10;99.90;;;;;;6724364;88;20210;-80
2023/04/21 08:08:54;;;;;;;1999.90;999.90;;;9.70;99.90;;;;;;6727605;88;20216;-78
2023/04/21 08:18:55;;;;;;;1999.90;999.90;;;10.00;99.90;;;;;;6724519;88;20206;-79
2023/04/21 08:28:56;;;;;;;1999.90;999.90;;;10.30;99.90;;;;;;6721552;88;20383;-78
2023/04/21 08:38:56;;;;;;;1999.90;999.90;;;10.50;99.90;;;;;;6724275;88;20318;-79
2023/04/21 08:48:57;;;;;;;1999.90;999.90;;;10.60;99.90;;;;;;6724100;88;20986;-79
2023/04/21 08:58:58;;;;;;;1999.90;999.90;;;11.00;99.90;;;;;;6725534;88;20334;-78
2023/04/21 09:09:01;;;;;;;1999.90;999.90;;;11.80;99.90;;;;;;6728122;88;20243;-79
2023/04/21 09:19:01;;;;;;;1999.90;999.90;;;12.00;99.90;;;;;;6725909;88;20177;-79
2023/04/21 09:29:05;;;;;;;1999.90;999.90;;;12.60;99.90;;;;;;6729950;88;20212;-80
2023/04/21 09:39:06;;;;;;;1999.90;999.90;;;13.70;99.90;;;;;;6730118;88;20235;-79
2023/04/21 09:49:09;;;;;;;1999.90;999.90;;;14.10;99.90;;;;;;6729486;88;20227;-80
2023/04/21 09:59:18;;;;;;;1999.90;999.90;;;14.40;99.90;;;;;;6707289;88;20182;-77
2023/04/21 10:20:21;;;;;;;1999.90;999.90;;;15.80;99.90;;;;;;6733869;88;20202;-79
2023/04/21 10:30:25;;;;;;;1999.90;999.90;;;16.60;99.90;;;;;;6715308;88;20198;-79
2023/04/21 10:40:28;;;;;;;1999.90;999.90;;;18.20;99.90;;;;;;6712641;88;20265;-79
2023/04/21 10:50:30;;;;;;;1999.90;999.90;;;18.10;99.90;;;;;;6716396;88;20174;-79
2023/04/21 11:00:31;;;;;;;1999.90;999.90;;;17.40;99.90;;;;;;6712978;88;20297;-80
2023/04/21 11:10:50;;;;;;;1999.90;999.90;;;17.50;99.90;;;;;;6712062;88;20265;-80
2023/04/21 11:20:51;;;;;;;1999.90;999.90;;;17.60;99.90;;;;;;6722864;88;20257;-79
2023/04/21 11:30:51;;;;;;;1999.90;999.90;;;18.80;99.90;;;;;;6721944;88;20215;-80
2023/04/21 11:40:52;;;;;;;1999.90;999.90;;;18.70;99.90;;;;;;6727999;88;20273;-80
2023/04/21 11:50:53;;;;;;;1999.90;999.90;;;19.70;98.60;;;;;;6746233;88;20202;-80
2023/04/21 12:00:53;;;;;;;1999.90;999.90;;;20.10;99.30;;;;;;6744301;88;20220;-80
2023/04/21 12:10:54;;;;;;;1999.90;999.90;;;20.60;97.60;;;;;;6737925;88;20794;-79
2023/04/21 12:20:55;;;;;;;1999.90;999.90;;;19.90;96.10;;;;;;6748670;88;20164;-79
2023/04/21 12:30:55;;;;;;;1999.90;999.90;;;20.00;97.30;;;;;;6740598;88;20339;-79
2023/04/21 12:40:56;;;;;;;1999.90;999.90;;;19.60;96.50;;;;;;6731827;88;20192;-79
2023/04/21 12:50:56;;;;;;;1999.90;999.90;;;20.10;95.50;;;;;;6732691;88;20208;-79
2023/04/21 13:00:57;;;;;;;1999.90;999.90;;;21.20;96.20;;;;;;6729026;88;20202;-80
2023/04/21 13:10:57;;;;;;;1999.90;999.90;;;21.60;95.80;;;;;;6731682;88;20194;-78
2023/04/21 13:20:58;;;;;;;1999.90;999.90;;;20.20;97.30;;;;;;6733355;88;20179;-80
2023/04/21 13:30:59;;;;;;;1999.90;999.90;;;20.30;97.70;;;;;;6737985;88;20185;-79
2023/04/21 13:40:59;;;;;;;1999.90;999.90;;;20.80;96.80;;;;;;6732285;88;20189;-79
2023/04/21 13:51:00;;;;;;;1999.90;999.90;;;20.50;96.20;;;;;;6732936;88;20250;-79
2023/04/21 14:01:00;;;;;;;1999.90;999.90;;;19.50;98.20;;;;;;6731683;88;20222;-79
2023/04/21 14:11:02;;;;;;;1999.90;999.90;;;20.60;98.20;;;;;;6734530;88;20197;-79
2023/04/21 14:21:03;;;;;;;1999.90;999.90;;;19.90;97.30;;;;;;6729007;88;20673;-79
2023/04/21 14:31:03;;;;;;;1999.90;999.90;;;19.70;97.40;;;;;;6740552;88;20233;-80
2023/04/21 14:41:04;;;;;;;1999.90;999.90;;;20.00;97.50;;;;;;6732227;88;20561;-78
2023/04/21 14:51:08;;;;;;;1999.90;999.90;;;20.20;97.20;;;;;;6734954;88;20181;-80
2023/04/21 15:01:09;;;;;;;1999.90;999.90;;;20.70;96.20;;;;;;6736463;88;20259;-80
2023/04/21 15:11:09;;;;;;;1999.90;999.90;;;20.40;97.30;;;;;;6736798;88;20195;-80
2023/04/21 15:21:10;;;;;;;1999.90;999.90;;;20.00;97.00;;;;;;6740053;88;20208;-80
2023/04/21 15:31:11;;;;;;;1999.90;999.90;;;20.20;96.40;;;;;;6737719;88;20202;-80
2023/04/21 15:41:12;;;;;;;1999.90;999.90;;;19.90;96.30;;;;;;6734745;88;20211;-80
2023/04/21 15:51:13;;;;;;;1999.90;999.90;;;19.30;97.20;;;;;;6733701;88;20185;-79
2023/04/21 16:01:14;;;;;;;1999.90;999.90;;;19.00;96.90;;;;;;6729147;88;20483;-78
2023/04/21 16:11:15;;;;;;;1999.90;999.90;;;19.40;96.40;;;;;;6732051;88;20363;-79
2023/04/21 16:21:15;;;;;;;1999.90;999.90;;;19.40;96.40;;;;;;6731190;88;20287;-79
2023/04/21 16:31:16;;;;;;;1999.90;999.90;;;19.40;96.00;;;;;;6729852;88;20190;-79
2023/04/21 16:41:16;;;;;;;1999.90;999.90;;;19.30;95.80;;;;;;6730377;88;20660;-80
2023/04/21 16:51:17;;;;;;;1999.90;999.90;;;19.30;95.30;;;;;;6736039;88;20186;-80
2023/04/21 17:01:17;;;;;;;1999.90;999.90;;;18.70;96.00;;;;;;6732730;88;20211;-80
2023/04/21 17:11:18;;;;;;;1999.90;999.90;;;18.90;96.30;;;;;;6739875;88;20209;-80
2023/04/21 17:21:18;;;;;;;1999.90;999.90;;;19.00;96.60;;;;;;6732011;88;20198;-81
2023/04/21 17:31:19;;;;;;;1999.90;999.90;;;19.10;98.10;;;;;;6745709;88;20201;-79
2023/04/21 17:41:20;;;;;;;1999.90;999.90;;;18.60;99.40;;;;;;6753543;87;20209;-79
2023/04/21 17:51:21;;;;;;;1999.90;999.90;;;18.00;99.90;;;;;;6754594;88;20213;-81
2023/04/21 18:01:21;;;;;;;1999.90;999.90;;;17.80;99.90;;;;;;6736668;88;20205;-80
2023/04/21 18:11:22;;;;;;;1999.90;999.90;;;17.70;99.90;;;;;;6737689;88;20347;-80
2023/04/21 18:21:22;;;;;;;1999.90;999.90;;;17.50;99.90;;;;;;6736540;88;20649;-80
2023/04/21 18:31:27;;;;;;;1999.90;999.90;;;17.40;99.90;;;;;;6735508;88;20672;-80
2023/04/21 18:41:28;;;;;;;1999.90;999.90;;;17.30;99.90;;;;;;6717088;88;20187;-78
2023/04/21 18:51:30;;;;;;;1999.90;999.90;;;15.80;99.90;;;;;;6715127;88;20633;-79
2023/04/21 19:01:30;;;;;;;1999.90;999.90;;;13.80;99.90;;;;;;6734866;88;20189;-80
2023/04/21 19:11:32;;;;;;;1999.90;999.90;;;13.20;99.90;;;;;;6730651;88;20320;-80
2023/04/21 19:21:34;;;;;;;1999.90;999.90;;;12.90;99.90;;;;;;6726976;88;20338;-81
2023/04/21 19:31:34;;;;;;;1999.90;999.90;;;12.70;99.90;;;;;;6734373;88;20825;-79
2023/04/21 19:41:35;;;;;;;1999.90;999.90;;;12.60;99.90;;;;;;6735590;88;20201;-81
2023/04/21 19:51:35;;;;;;;1999.90;999.90;;;12.30;99.90;;;;;;6737820;88;20229;-80
2023/04/21 20:01:36;;;;;;;1999.90;999.90;;;12.10;99.90;;;;;;6731311;88;20186;-81
2023/04/21 20:11:36;;;;;;;1999.90;999.90;;;11.90;99.90;;;;;;6730475;88;20201;-78
2023/04/21 20:21:37;;;;;;;1999.90;999.90;;;11.70;99.90;;;;;;6731176;88;20322;-79
2023/04/21 20:31:37;;;;;;;1999.90;999.90;;;11.80;99.90;;;;;;6730660;88;20219;-80
2023/04/21 20:41:38;;;;;;;1999.90;999.90;;;11.90;99.90;;;;;;6727296;88;20320;-79
2023/04/21 20:51:43;;;;;;;1999.90;999.90;;;11.50;99.90;;;;;;6744228;77;20203;-80
2023/04/21 21:01:43;;;;;;;1999.90;999.90;;;11.30;99.90;;;;;;6734877;88;20242;-80
2023/04/21 21:11:44;;;;;;;1999.90;999.90;;;11.00;99.90;;;;;;6732074;88;20210;-80
2023/04/21 21:21:45;;;;;;;1999.90;999.90;;;10.90;99.90;;;;;;6735236;88;20229;-79
2023/04/21 21:31:45;;;;;;;1999.90;999.90;;;10.70;99.90;;;;;;6738380;88;20541;-77
2023/04/21 22:21:59;;;;;;;1999.90;999.90;;;10.10;99.90;;;;;;6718474;88;20701;-79
2023/04/21 22:32:00;;;;;;;1999.90;999.90;;;10.00;99.90;;;;;;6706853;88;20352;-79
2023/04/21 22:42:01;;;;;;;1999.90;999.90;;;10.00;99.90;;;;;;6700623;88;20174;-79
2023/04/21 22:52:01;;;;;;;1999.90;999.90;;;10.00;99.90;;;;;;6703229;88;20190;-79
2023/04/21 23:02:03;;;;;;;1999.90;999.90;;;10.00;99.90;;;;;;6706048;88;20214;-79
2023/04/21 23:12:04;;;;;;;1999.90;999.90;;;9.90;99.90;;;;;;6701258;88;20202;-79
2023/04/21 23:22:05;;;;;;;1999.90;999.90;;;9.80;99.90;;;;;;6699701;88;20204;-79
2023/04/21 23:32:05;;;;;;;1999.90;999.90;;;9.90;99.90;;;;;;6713034;88;20245;-78
2023/04/21 23:42:06;;;;;;;1999.90;999.90;;;9.90;99.90;;;;;;6708357;88;20323;-77
2023/04/21 23:52:07;;;;;;;1999.90;999.90;;;10.00;99.90;;;;;;6708456;88;21843;-77
